createdAt,value
2023-04-23T00:00:12.990Z,7.62
2023-04-23T00:03:06.401Z,7.65
2023-04-23T00:06:18.037Z,7.70
2023-04-23T00:09:08.956Z,7.74
2023-04-23T00:12:03.176Z,7.75
2023-04-23T00:14:54.597Z,7.77
2023-04-23T00:17:45.047Z,7.80
2023-04-23T00:20:35.903Z,7.80
2023-04-23T00:23:26.591Z,7.75
2023-04-23T00:26:20.064Z,7.70
2023-04-23T00:29:10.787Z,7.63
2023-04-23T00:32:22.823Z,7.53
2023-04-23T00:35:20.873Z,7.44
2023-04-23T00:38:11.499Z,7.38
2023-04-23T00:41:04.936Z,7.33
2023-04-23T00:44:08.979Z,7.30
2023-04-23T00:47:12.392Z,7.28
2023-04-23T00:50:08.925Z,7.25
2023-04-23T00:53:09.077Z,7.20
2023-04-23T00:56:19.700Z,7.17
2023-04-23T00:59:21.241Z,7.14
2023-04-23T01:02:21.764Z,7.11
2023-04-23T01:05:23.326Z,7.09
2023-04-23T01:08:27.611Z,7.10
2023-04-23T01:11:37.369Z,7.12
2023-04-23T01:14:48.420Z,7.17
2023-04-23T01:17:52.259Z,7.19
2023-04-23T01:20:48.266Z,7.19
2023-04-23T01:23:38.581Z,7.11
2023-04-23T01:26:49.069Z,7.02
2023-04-23T01:29:59.744Z,6.96
2023-04-23T01:33:10.685Z,6.95
2023-04-23T01:36:03.954Z,6.92
2023-04-23T01:39:15.890Z,6.87
2023-04-23T01:42:20.868Z,6.84
2023-04-23T01:45:12.669Z,6.81
2023-04-23T01:48:21.965Z,6.75
2023-04-23T01:51:32.552Z,6.69
2023-04-23T01:54:25.679Z,6.64
2023-04-23T01:57:29.392Z,6.57
2023-04-23T02:00:20.833Z,6.48
2023-04-23T02:03:23.890Z,6.40
2023-04-23T02:06:34.777Z,6.34
2023-04-23T02:09:28.272Z,6.30
2023-04-23T02:12:29.671Z,6.29
2023-04-23T02:15:22.587Z,6.29
2023-04-23T02:18:33.136Z,6.29
2023-04-23T02:21:33.389Z,6.30
2023-04-23T02:24:23.600Z,6.30
2023-04-23T02:27:23.972Z,6.29
2023-04-23T02:30:14.882Z,6.26
2023-04-23T02:33:05.407Z,6.25
2023-04-23T02:35:55.718Z,6.28
2023-04-23T02:39:06.520Z,6.34
2023-04-23T02:42:17.280Z,6.42
2023-04-23T02:45:27.697Z,6.51
2023-04-23T02:48:22.483Z,6.57
2023-04-23T02:51:27.531Z,6.64
2023-04-23T02:54:28.882Z,6.72
2023-04-23T02:57:19.412Z,6.78
2023-04-23T03:00:30.294Z,6.76
2023-04-23T03:03:39.923Z,6.73
2023-04-23T03:06:35.892Z,6.69
2023-04-23T03:09:45.637Z,6.66
2023-04-23T03:12:56.564Z,6.65
2023-04-23T03:15:47.046Z,6.63
2023-04-23T03:18:39.730Z,6.60
2023-04-23T03:21:33.266Z,6.56
2023-04-23T03:24:43.985Z,6.54
2023-04-23T03:27:40.315Z,6.53
2023-04-23T03:30:41.741Z,6.51
2023-04-23T03:33:39.873Z,6.47
2023-04-23T03:36:41.040Z,6.42
2023-04-23T03:39:44.670Z,6.36
2023-04-23T03:42:55.246Z,6.33
2023-04-23T03:46:06.751Z,6.35
2023-04-23T03:49:05.077Z,6.38
2023-04-23T03:52:07.424Z,6.41
2023-04-23T03:55:12.354Z,6.44
2023-04-23T03:58:07.148Z,6.46
2023-04-23T04:01:15.570Z,6.48
2023-04-23T04:04:11.276Z,6.53
2023-04-23T04:07:14.746Z,6.58
2023-04-23T04:10:24.247Z,6.62
2023-04-23T04:13:24.625Z,6.63
2023-04-23T04:16:19.685Z,6.60
2023-04-23T04:19:30.272Z,6.55
2023-04-23T04:22:41.192Z,6.51
2023-04-23T04:25:31.713Z,6.47
2023-04-23T04:28:25.369Z,6.44
2023-04-23T04:31:20.634Z,6.42
2023-04-23T04:34:18.238Z,6.39
2023-04-23T04:37:11.724Z,6.35
2023-04-23T04:40:02.764Z,6.32
2023-04-23T04:42:53.204Z,6.29
2023-04-23T04:46:07.514Z,6.26
2023-04-23T04:49:19.817Z,6.23
2023-04-23T04:52:30.698Z,6.20
2023-04-23T04:55:21.092Z,6.19
2023-04-23T04:58:30.268Z,6.17
2023-04-23T05:01:31.289Z,6.18
2023-04-23T05:04:24.881Z,6.20
2023-04-23T05:07:15.404Z,6.22
2023-04-23T05:10:09.079Z,6.28
2023-04-23T05:13:02.012Z,6.35
2023-04-23T05:15:52.537Z,6.41
2023-04-23T05:19:03.058Z,6.48
2023-04-23T05:21:53.428Z,6.56
2023-04-23T05:24:47.099Z,6.59
2023-04-23T05:27:57.929Z,6.62
2023-04-23T05:30:48.607Z,6.66
2023-04-23T05:33:49.291Z,6.69
2023-04-23T05:36:43.366Z,6.71
2023-04-23T05:39:46.901Z,6.71
2023-04-23T05:42:58.585Z,6.72
2023-04-23T05:45:51.633Z,6.73
2023-04-23T05:48:45.190Z,6.72
2023-04-23T05:51:55.673Z,6.71
2023-04-23T05:55:06.883Z,6.70
2023-04-23T05:58:19.325Z,6.71
2023-04-23T06:01:22.985Z,6.73
2023-04-23T06:04:24.559Z,6.76
2023-04-23T06:07:28.687Z,6.79
2023-04-23T06:10:30.197Z,6.84
2023-04-23T06:13:30.983Z,6.90
2023-04-23T06:16:34.356Z,6.99
2023-04-23T06:19:38.353Z,7.06
2023-04-23T06:22:41.510Z,7.18
2023-04-23T06:25:40.987Z,7.29
2023-04-23T06:28:33.674Z,7.40
2023-04-23T06:31:57.529Z,7.50
2023-04-23T06:35:00.034Z,7.59
2023-04-23T06:38:11.987Z,7.72
2023-04-23T06:41:10.088Z,7.88
2023-04-23T06:44:03.572Z,7.99
2023-04-23T06:47:13.842Z,8.09
2023-04-23T06:50:10.678Z,8.08
2023-04-23T06:53:03.490Z,8.05
2023-04-23T06:56:02.856Z,8.05
2023-04-23T06:59:02.393Z,8.09
2023-04-23T07:01:55.965Z,8.15
2023-04-23T07:04:51.300Z,8.28
2023-04-23T07:07:43.562Z,8.48
2023-04-23T07:10:37.340Z,8.63
2023-04-23T07:13:27.983Z,8.72
2023-04-23T07:16:24.112Z,8.79
2023-04-23T07:19:25.512Z,8.85
2023-04-23T07:22:19.153Z,8.92
2023-04-23T07:25:10.058Z,9.00
2023-04-23T07:28:00.750Z,9.29
2023-04-23T07:30:51.040Z,9.90
2023-04-23T07:33:41.521Z,10.55
2023-04-23T07:36:32.291Z,10.97
2023-04-23T07:39:22.987Z,11.18
2023-04-23T07:42:13.271Z,11.53
2023-04-23T07:45:03.658Z,11.53
2023-04-23T07:47:54.000Z,11.44
2023-04-23T07:50:44.751Z,11.28
2023-04-23T07:53:35.133Z,11.00
2023-04-23T07:56:26.285Z,10.68
2023-04-23T07:59:16.650Z,10.48
2023-04-23T08:02:07.021Z,10.31
2023-04-23T08:04:57.500Z,10.12
2023-04-23T08:07:47.851Z,10.04
2023-04-23T08:10:38.186Z,10.01
2023-04-23T08:13:28.374Z,10.16
2023-04-23T08:16:21.785Z,11.24
2023-04-23T08:19:14.647Z,12.97
2023-04-23T08:22:04.981Z,14.54
2023-04-23T08:24:55.268Z,15.72
2023-04-23T08:27:45.448Z,16.45
2023-04-23T08:30:35.768Z,17.51
2023-04-23T08:33:26.197Z,18.63
2023-04-23T08:36:16.561Z,19.63
2023-04-23T08:39:13.941Z,20.79
2023-04-23T08:42:06.873Z,21.67
2023-04-23T08:44:56.951Z,22.63
2023-04-23T08:47:47.105Z,23.47
2023-04-23T08:50:38.496Z,24.35
2023-04-23T08:53:29.305Z,25.30
2023-04-23T08:56:21.170Z,26.18
2023-04-23T08:59:12.186Z,26.98
2023-04-23T09:02:10.465Z,27.02
2023-04-23T09:05:01.271Z,26.19
2023-04-23T09:07:51.459Z,26.49
2023-04-23T09:10:42.311Z,26.94
2023-04-23T09:13:33.198Z,26.73
2023-04-23T09:16:23.492Z,25.02
2023-04-23T09:19:13.956Z,23.23
2023-04-23T09:22:04.195Z,21.74
2023-04-23T09:24:55.568Z,20.60
2023-04-23T09:27:46.490Z,19.81
2023-04-23T09:30:40.175Z,19.39
2023-04-23T09:33:31.175Z,21.15
2023-04-23T09:36:23.989Z,23.05
2023-04-23T09:39:15.012Z,23.07
2023-04-23T09:42:08.652Z,23.56
2023-04-23T09:44:59.837Z,24.54
2023-04-23T09:47:55.387Z,23.24
2023-04-23T09:50:45.978Z,21.81
2023-04-23T09:53:43.509Z,20.81
2023-04-23T09:56:34.117Z,20.62
2023-04-23T09:59:39.530Z,19.30
2023-04-23T10:02:40.224Z,18.01
2023-04-23T10:05:45.282Z,17.01
2023-04-23T10:08:44.474Z,16.26
2023-04-23T10:11:34.989Z,16.07
2023-04-23T10:14:25.624Z,18.23
2023-04-23T10:17:15.853Z,21.18
2023-04-23T10:20:08.506Z,23.83
2023-04-23T10:22:58.914Z,23.44
2023-04-23T10:25:49.201Z,21.46
2023-04-23T10:28:41.070Z,19.64
2023-04-23T10:31:34.025Z,18.34
2023-04-23T10:34:25.021Z,17.35
2023-04-23T10:37:16.501Z,16.62
2023-04-23T10:40:12.705Z,16.28
2023-04-23T10:43:03.227Z,16.04
2023-04-23T10:45:54.038Z,15.73
2023-04-23T10:49:03.799Z,15.49
2023-04-23T10:55:00.237Z,15.83
2023-04-23T10:58:01.737Z,16.24
2023-04-23T11:00:53.805Z,16.28
2023-04-23T11:03:44.993Z,16.10
2023-04-23T11:06:55.230Z,15.84
2023-04-23T11:09:47.631Z,15.99
2023-04-23T11:12:40.091Z,16.57
2023-04-23T11:15:31.735Z,17.19
2023-04-23T11:18:25.685Z,16.83
2023-04-23T11:21:16.089Z,16.21
2023-04-23T11:24:08.318Z,15.55
2023-04-23T11:26:58.860Z,14.86
2023-04-23T11:29:49.435Z,14.30
2023-04-23T11:32:39.863Z,13.81
2023-04-23T11:35:32.524Z,13.37
2023-04-23T11:38:23.024Z,13.05
2023-04-23T11:41:14.032Z,12.84
2023-04-23T11:44:04.992Z,12.69
2023-04-23T11:46:58.407Z,12.53
2023-04-23T11:49:49.895Z,12.51
2023-04-23T11:52:40.008Z,12.59
2023-04-23T11:55:33.569Z,12.69
2023-04-23T11:58:23.884Z,12.82
2023-04-23T12:01:14.132Z,12.87
2023-04-23T12:04:13.566Z,12.93
2023-04-23T12:07:12.785Z,13.03
2023-04-23T12:10:10.973Z,13.12
2023-04-23T12:13:01.219Z,13.25
2023-04-23T12:15:52.451Z,13.35
2023-04-23T12:18:44.518Z,13.48
2023-04-23T12:21:34.827Z,13.71
2023-04-23T12:24:26.305Z,14.06
2023-04-23T12:27:20.398Z,14.73
2023-04-23T12:30:12.060Z,15.53
2023-04-23T12:33:02.649Z,17.12
2023-04-23T12:35:53.405Z,20.77
2023-04-23T12:38:43.772Z,23.12
2023-04-23T12:41:33.875Z,24.26
2023-04-23T12:44:24.030Z,24.38
2023-04-23T12:47:15.906Z,24.40
2023-04-23T12:50:06.885Z,23.90
2023-04-23T12:52:57.005Z,23.71
2023-04-23T12:55:48.538Z,24.23
2023-04-23T12:58:38.789Z,24.48
2023-04-23T13:01:29.219Z,23.50
2023-04-23T13:04:19.481Z,22.08
2023-04-23T13:07:10.329Z,20.55
2023-04-23T13:10:00.662Z,19.10
2023-04-23T13:12:50.750Z,18.02
2023-04-23T13:15:41.224Z,18.12
2023-04-23T13:18:31.599Z,18.88
2023-04-23T13:21:21.899Z,20.05
2023-04-23T13:24:12.098Z,19.64
2023-04-23T13:27:02.924Z,18.62
2023-04-23T13:29:53.161Z,17.72
2023-04-23T13:32:43.355Z,16.92
2023-04-23T13:35:33.490Z,16.30
2023-04-23T13:38:23.787Z,15.81
2023-04-23T13:41:14.264Z,15.45
2023-04-23T13:44:04.855Z,15.22
2023-04-23T13:46:57.298Z,15.07
2023-04-23T13:49:47.502Z,14.98
2023-04-23T13:52:39.445Z,15.63
2023-04-23T13:55:29.952Z,16.63
2023-04-23T13:58:20.337Z,17.83
2023-04-23T14:01:12.039Z,19.51
2023-04-23T14:04:04.233Z,21.00
2023-04-23T14:06:54.601Z,22.11
2023-04-23T14:09:46.661Z,22.83
2023-04-23T14:12:36.813Z,23.32
2023-04-23T14:15:27.076Z,23.66
2023-04-23T14:18:17.372Z,23.96
2023-04-23T14:21:07.808Z,23.97
2023-04-23T14:24:02.446Z,23.19
2023-04-23T14:26:52.908Z,22.22
2023-04-23T14:29:47.441Z,21.11
2023-04-23T14:32:37.696Z,20.04
2023-04-23T14:35:39.561Z,19.25
2023-04-23T14:38:33.190Z,18.60
2023-04-23T14:41:23.657Z,18.14
2023-04-23T14:44:13.975Z,17.40
2023-04-23T14:47:04.110Z,16.41
2023-04-23T14:49:54.321Z,15.45
2023-04-23T14:52:46.750Z,14.60
2023-04-23T14:55:37.158Z,13.98
2023-04-23T14:58:27.301Z,13.49
2023-04-23T15:01:17.661Z,13.10
2023-04-23T15:04:08.172Z,12.76
2023-04-23T15:06:59.560Z,12.49
2023-04-23T15:09:51.932Z,12.30
2023-04-23T15:12:49.681Z,12.13
2023-04-23T15:15:45.412Z,12.03
2023-04-23T15:18:35.840Z,12.07
2023-04-23T15:21:26.463Z,12.14
2023-04-23T15:24:16.799Z,12.24
2023-04-23T15:27:08.457Z,12.41
2023-04-23T15:29:59.149Z,12.61
2023-04-23T15:32:49.388Z,12.85
2023-04-23T15:35:41.402Z,13.12
2023-04-23T15:38:31.552Z,13.41
2023-04-23T15:41:21.833Z,13.64
2023-04-23T15:44:12.831Z,13.82
2023-04-23T15:47:03.545Z,13.93
2023-04-23T15:49:53.682Z,13.99
2023-04-23T15:52:44.235Z,14.08
2023-04-23T15:55:34.732Z,14.24
2023-04-23T15:58:24.915Z,14.49
2023-04-23T16:01:15.091Z,14.70
2023-04-23T16:04:11.213Z,14.79
2023-04-23T16:07:02.004Z,14.71
2023-04-23T16:09:52.293Z,14.56
2023-04-23T16:12:45.689Z,14.43
2023-04-23T16:15:36.078Z,14.30
2023-04-23T16:18:26.308Z,14.19
2023-04-23T16:21:16.601Z,14.06
2023-04-23T16:24:08.049Z,13.97
2023-04-23T16:26:58.231Z,13.87
2023-04-23T16:29:48.494Z,13.73
2023-04-23T16:32:38.673Z,13.55
2023-04-23T16:35:29.074Z,13.38
2023-04-23T16:38:19.208Z,13.21
2023-04-23T16:41:09.437Z,13.06
2023-04-23T16:44:02.460Z,12.98
2023-04-23T16:46:53.785Z,12.97
2023-04-23T16:49:43.950Z,12.99
2023-04-23T16:52:34.293Z,13.03
2023-04-23T16:55:27.814Z,13.05
2023-04-23T16:58:18.953Z,13.06
2023-04-23T17:01:09.804Z,13.08
2023-04-23T17:04:00.262Z,13.11
2023-04-23T17:06:51.007Z,13.16
2023-04-23T17:09:41.225Z,13.22
2023-04-23T17:12:31.557Z,13.27
2023-04-23T17:15:22.908Z,13.28
2023-04-23T17:18:15.938Z,13.30
2023-04-23T17:21:06.650Z,13.37
2023-04-23T17:23:56.902Z,13.40
2023-04-23T17:26:49.278Z,13.42
2023-04-23T17:29:39.464Z,13.39
2023-04-23T17:32:30.175Z,13.33
2023-04-23T17:35:20.641Z,13.28
2023-04-23T17:38:11.248Z,13.20
2023-04-23T17:41:01.493Z,13.19
2023-04-23T17:43:51.660Z,13.21
2023-04-23T17:46:42.110Z,13.20
2023-04-23T17:49:32.265Z,13.19
2023-04-23T17:52:22.451Z,13.14
2023-04-23T17:55:13.089Z,13.06
2023-04-23T17:58:05.803Z,12.98
2023-04-23T18:00:56.394Z,12.92
2023-04-23T18:03:48.223Z,12.83
2023-04-23T18:06:38.513Z,12.72
2023-04-23T18:09:29.310Z,12.64
2023-04-23T18:12:19.574Z,12.58
2023-04-23T18:15:12.559Z,12.53
2023-04-23T18:18:03.706Z,12.45
2023-04-23T18:20:53.936Z,12.34
2023-04-23T18:23:44.186Z,12.23
2023-04-23T18:26:34.419Z,12.15
2023-04-23T18:29:25.493Z,12.07
2023-04-23T18:32:27.472Z,11.97
2023-04-23T18:35:21.937Z,11.89
2023-04-23T18:38:23.514Z,11.83
2023-04-23T18:41:14.111Z,11.78
2023-04-23T18:44:04.336Z,11.73
2023-04-23T18:46:55.252Z,11.70
2023-04-23T18:49:53.841Z,11.69
2023-04-23T18:52:44.237Z,11.69
2023-04-23T18:55:34.487Z,11.73
2023-04-23T18:58:30.160Z,11.76
2023-04-23T19:01:20.985Z,11.73
2023-04-23T19:04:11.341Z,11.67
2023-04-23T19:07:01.571Z,11.59
2023-04-23T19:09:51.923Z,11.51
2023-04-23T19:12:42.008Z,11.43
2023-04-23T19:15:32.534Z,11.34
2023-04-23T19:18:23.158Z,11.25
2023-04-23T19:21:16.729Z,11.15
2023-04-23T19:24:07.394Z,11.08
2023-04-23T19:26:58.127Z,11.03
2023-04-23T19:29:49.392Z,10.97
2023-04-23T19:32:39.875Z,10.90
2023-04-23T19:35:30.357Z,10.84
2023-04-23T19:38:20.718Z,10.75
2023-04-23T19:41:11.404Z,10.65
2023-04-23T19:44:01.865Z,10.56
2023-04-23T19:46:51.965Z,10.46
2023-04-23T19:49:42.608Z,10.36
2023-04-23T19:52:33.048Z,10.27
2023-04-23T19:55:27.233Z,10.18
2023-04-23T19:58:20.801Z,10.10
2023-04-23T20:01:11.375Z,10.02
2023-04-23T20:04:01.933Z,9.94
2023-04-23T20:06:52.176Z,9.88
2023-04-23T20:09:42.921Z,9.83
2023-04-23T20:12:34.121Z,9.79
2023-04-23T20:15:34.613Z,9.75
2023-04-23T20:18:25.731Z,9.73
2023-04-23T20:21:16.197Z,9.72
2023-04-23T20:24:09.019Z,9.71
2023-04-23T20:26:59.284Z,9.72
2023-04-23T20:29:50.385Z,9.73
2023-04-23T20:32:40.541Z,9.73
2023-04-23T20:35:31.712Z,9.73
2023-04-23T20:38:21.865Z,9.71
2023-04-23T20:41:12.230Z,9.69
2023-04-23T20:44:03.417Z,9.66
2023-04-23T20:46:53.864Z,9.63
2023-04-23T20:49:48.043Z,9.60
2023-04-23T20:52:38.721Z,9.57
2023-04-23T20:55:28.990Z,9.55
2023-04-23T20:58:19.243Z,9.54
2023-04-23T21:01:11.492Z,9.54
2023-04-23T21:04:02.519Z,9.55
2023-04-23T21:07:03.091Z,9.56
2023-04-23T21:09:56.089Z,9.57
2023-04-23T21:12:46.848Z,9.58
2023-04-23T21:15:37.590Z,9.60
2023-04-23T21:18:27.978Z,9.62
2023-04-23T21:21:18.950Z,9.64
2023-04-23T21:24:09.236Z,9.66
2023-04-23T21:26:59.606Z,9.69
2023-04-23T21:29:49.891Z,9.71
2023-04-23T21:32:52.166Z,9.72
2023-04-23T21:35:42.512Z,9.72
2023-04-23T21:38:33.673Z,9.72
2023-04-23T21:41:24.613Z,9.70
2023-04-23T21:44:14.946Z,9.67
2023-04-23T21:47:08.337Z,9.64
2023-04-23T21:50:01.624Z,9.61
2023-04-23T21:52:53.456Z,9.60
2023-04-23T21:55:43.744Z,9.60
2023-04-23T21:58:35.306Z,9.62
2023-04-23T22:01:25.840Z,9.63
2023-04-23T22:04:16.354Z,9.63
2023-04-23T22:07:12.623Z,9.63
2023-04-23T22:10:02.898Z,9.64
2023-04-23T22:12:53.260Z,9.66
2023-04-23T22:15:44.407Z,9.68
2023-04-23T22:18:38.924Z,9.68
2023-04-23T22:21:29.523Z,9.71
2023-04-23T22:24:23.696Z,9.74
2023-04-23T22:27:13.907Z,9.78
2023-04-23T22:30:04.923Z,9.83
2023-04-23T22:32:55.821Z,9.88
2023-04-23T22:36:07.008Z,9.96
2023-04-23T22:39:01.313Z,10.03
2023-04-23T22:42:13.476Z,10.10
2023-04-23T22:45:04.836Z,10.14
2023-04-23T22:48:04.407Z,10.18
2023-04-23T22:50:54.898Z,10.18
2023-04-23T22:53:45.259Z,10.15
2023-04-23T22:56:37.660Z,10.14
2023-04-23T22:59:29.934Z,10.14
2023-04-23T23:02:20.509Z,10.12
2023-04-23T23:05:11.217Z,10.09
2023-04-23T23:08:02.280Z,10.06
2023-04-23T23:10:54.980Z,10.04
2023-04-23T23:13:48.076Z,10.02
2023-04-23T23:16:38.557Z,9.99
2023-04-23T23:19:31.118Z,9.96
2023-04-23T23:22:21.377Z,9.93
2023-04-23T23:25:12.125Z,9.90
2023-04-23T23:28:02.415Z,9.88
2023-04-23T23:30:53.853Z,9.86
2023-04-23T23:33:44.238Z,9.83
2023-04-23T23:36:35.181Z,9.78
2023-04-23T23:39:25.478Z,9.76
2023-04-23T23:42:15.878Z,9.73
2023-04-23T23:45:07.187Z,9.72
2023-04-23T23:47:57.332Z,9.70
2023-04-23T23:50:47.580Z,9.66
2023-04-23T23:53:37.825Z,9.63
2023-04-23T23:56:28.355Z,9.60
2023-04-23T23:59:18.716Z,9.58
